Time;durP1;ratioP1;P1;durP2;ratioP2;P2;SDS_P1;SDS_P2;PMS_P1;PMS_P2;Temp;Humidity;BMP_temperature;BMP_pressure;BME280_temperature;BME280_humidity;BME280_pressure;Samples;Min_cycle;Max_cycle;Signal;HPM_P1;HPM_P2
2022/02/13 00:02:18;;;;;;;87.02;39.20;;;;;;;-1.96;70.14;101405.21;2185243;81;28247;-68
2022/02/13 00:05:19;;;;;;;80.00;38.65;;;;;;;-2.00;70.19;101393.77;2185343;81;28624;-65
2022/02/13 00:08:21;;;;;;;86.85;39.10;;;;;;;-2.02;70.30;101392.85;2185177;81;30841;-68
2022/02/13 00:11:23;;;;;;;83.00;38.08;;;;;;;-2.04;70.32;101381.84;2185219;81;33001;-68
2022/02/13 00:14:24;;;;;;;76.60;37.13;;;;;;;-2.07;70.30;101376.55;2183267;81;29311;-67
2022/02/13 00:17:26;;;;;;;87.97;37.78;;;;;;;-2.11;70.35;101379.52;2185513;81;27228;-64
2022/02/13 00:20:28;;;;;;;75.65;33.80;;;;;;;-2.14;70.43;101372.48;2185482;81;28857;-68
2022/02/13 00:23:30;;;;;;;69.50;32.50;;;;;;;-2.16;70.48;101362.81;2185217;81;32252;-66
2022/02/13 00:26:33;;;;;;;52.53;25.62;;;;;;;-2.17;70.59;101366.30;2153850;81;32936;-65
2022/02/13 00:29:35;;;;;;;54.38;25.10;;;;;;;-2.16;70.75;101362.37;2150577;82;29403;-66
2022/02/13 00:32:37;;;;;;;59.30;25.23;;;;;;;-2.12;70.91;101360.69;2150889;82;27661;-69
2022/02/13 00:35:41;;;;;;;47.43;22.37;;;;;;;-2.07;70.99;101353.80;2150870;81;28577;-70
2022/02/13 00:38:42;;;;;;;44.40;20.30;;;;;;;-2.01;71.15;101346.45;2150618;82;31029;-67
2022/02/13 00:41:44;;;;;;;52.38;22.65;;;;;;;-1.93;71.20;101348.81;2150588;82;33148;-68
2022/02/13 00:44:46;;;;;;;47.58;20.48;;;;;;;-1.84;71.18;101349.42;2146570;81;29389;-69
2022/02/13 00:47:48;;;;;;;49.42;21.37;;;;;;;-1.78;71.14;101346.88;2131847;81;27629;-67
2022/02/13 00:50:49;;;;;;;45.35;20.65;;;;;;;-1.70;71.10;101340.04;2150579;82;29510;-68
2022/02/13 00:53:51;;;;;;;45.78;19.32;;;;;;;-1.65;71.00;101335.30;2149681;82;31101;-69
2022/02/13 00:56:53;;;;;;;41.70;19.40;;;;;;;-1.59;71.04;101344.58;2150487;82;33791;-66
2022/02/13 00:59:54;;;;;;;40.40;20.52;;;;;;;-1.55;70.93;101340.72;2149706;82;30155;-66
2022/02/13 01:02:56;;;;;;;42.95;20.70;;;;;;;-1.52;70.89;101339.91;2150113;82;27593;-67
2022/02/13 01:05:58;;;;;;;43.48;20.30;;;;;;;-1.51;70.77;101333.80;2148855;82;28631;-67
2022/02/13 01:09:00;;;;;;;46.23;20.65;;;;;;;-1.51;70.70;101331.16;2151034;82;31010;-70
2022/02/13 01:12:02;;;;;;;42.93;20.23;;;;;;;-1.49;70.69;101332.48;2157121;82;32996;-67
2022/02/13 01:15:04;;;;;;;47.08;20.92;;;;;;;-1.49;70.65;101327.23;2120260;83;30135;-69
2022/02/13 01:18:06;;;;;;;43.25;19.95;;;;;;;-1.49;70.62;101327.23;2158583;81;27854;-67
2022/02/13 01:21:08;;;;;;;38.67;18.12;;;;;;;-1.51;70.68;101320.66;2157140;82;28752;-69
2022/02/13 01:24:10;;;;;;;32.03;14.78;;;;;;;-1.50;70.69;101312.33;2171564;81;31180;-66
2022/02/13 01:27:12;;;;;;;30.77;15.45;;;;;;;-1.46;70.81;101314.15;2145709;83;33314;-69
2022/02/13 01:30:14;;;;;;;30.90;15.28;;;;;;;-1.39;70.84;101298.91;2159141;82;29339;-67
2022/02/13 01:33:15;;;;;;;40.15;16.15;;;;;;;-1.34;70.75;101297.70;2146083;82;27702;-64
2022/02/13 01:36:17;;;;;;;36.48;17.60;;;;;;;-1.29;70.65;101290.33;2189207;80;28672;-68
2022/02/13 01:39:19;;;;;;;41.63;19.40;;;;;;;-1.24;70.57;101281.20;2158253;82;31245;-68
2022/02/13 01:42:20;;;;;;;35.28;17.85;;;;;;;-1.22;70.48;101284.29;2162175;81;33689;-69
2022/02/13 01:45:22;;;;;;;44.25;19.73;;;;;;;-1.18;70.41;101279.08;2162306;82;30087;-67
2022/02/13 01:48:24;;;;;;;51.37;22.10;;;;;;;-1.17;70.32;101273.86;2161413;81;27578;-67
2022/02/13 01:51:25;;;;;;;42.17;20.00;;;;;;;-1.17;70.26;101271.65;2158074;82;29857;-67
2022/02/13 01:54:27;;;;;;;40.20;19.98;;;;;;;-1.17;70.19;101276.50;2158312;81;31008;-68
2022/02/13 01:57:29;;;;;;;37.40;17.73;;;;;;;-1.16;70.15;101273.42;2158464;81;32953;-69
2022/02/13 02:00:31;;;;;;;40.33;19.42;;;;;;;-1.16;70.11;101266.84;2157946;82;29365;-68
2022/02/13 02:03:33;;;;;;;39.78;18.77;;;;;;;-1.16;70.04;101266.44;2162052;82;27691;-70
2022/02/13 02:06:35;;;;;;;38.98;19.77;;;;;;;-1.16;70.05;101259.86;2119338;84;28864;-69
2022/02/13 02:09:37;;;;;;;42.43;20.02;;;;;;;-1.14;70.02;101255.92;2161828;81;31822;-69
2022/02/13 02:12:39;;;;;;;36.00;18.80;;;;;;;-1.14;69.97;101255.92;2189122;81;33155;-69
2022/02/13 02:15:41;;;;;;;55.85;27.98;;;;;;;-1.15;69.87;101241.88;2195856;81;30076;-67
2022/02/13 02:18:43;;;;;;;48.28;22.13;;;;;;;-1.14;69.85;101239.70;2160872;82;27661;-68
2022/02/13 02:21:45;;;;;;;52.93;24.27;;;;;;;-1.15;69.85;101235.75;2159401;82;28621;-68
2022/02/13 02:24:46;;;;;;;69.12;31.82;;;;;;;-1.17;69.81;101229.17;2157669;82;31950;-66
2022/02/13 02:27:48;;;;;;;45.73;20.68;;;;;;;-1.19;69.78;101217.74;2127575;81;33701;-66
2022/02/13 02:30:50;;;;;;;48.98;23.52;;;;;;;-1.19;69.79;101213.80;2197979;81;30252;-66
2022/02/13 02:33:51;;;;;;;51.10;22.55;;;;;;;-1.20;69.77;101213.34;2157866;82;27626;-69
2022/02/13 02:36:53;;;;;;;45.55;20.32;;;;;;;-1.19;69.79;101204.59;2189817;81;28665;-67
2022/02/13 02:39:55;;;;;;;60.98;25.65;;;;;;;-1.20;69.76;101209.41;2181226;81;31007;-69
2022/02/13 02:42:57;;;;;;;54.40;24.15;;;;;;;-1.20;69.72;101204.14;2157623;82;33732;-70
2022/02/13 02:45:59;;;;;;;52.23;20.90;;;;;;;-1.21;69.71;101193.17;2197045;81;30311;-67
2022/02/13 02:49:00;;;;;;;48.75;20.15;;;;;;;-1.23;69.69;101188.32;2145112;82;28361;-65
2022/02/13 02:52:02;;;;;;;58.80;25.08;;;;;;;-1.23;69.65;101189.19;2140281;83;28637;-64
2022/02/13 02:55:05;;;;;;;44.33;19.27;;;;;;;-1.21;69.68;101193.17;2120717;83;32225;-67
2022/02/13 02:58:07;;;;;;;44.35;21.00;;;;;;;-1.20;69.66;101187.05;2160502;81;33743;-67
2022/02/13 03:01:12;;;;;;;42.23;19.70;;;;;;;-1.19;69.65;101183.56;2161232;82;29318;-67
2022/02/13 03:04:14;;;;;;;46.70;19.98;;;;;;;-1.18;69.63;101175.23;2119815;83;27663;-65
2022/02/13 03:07:15;;;;;;;41.08;18.98;;;;;;;-1.18;69.58;101172.59;2161882;82;28606;-70
2022/02/13 03:10:17;;;;;;;43.55;20.40;;;;;;;-1.19;69.57;101168.20;2099930;82;31068;-68
2022/02/13 03:13:20;;;;;;;38.75;18.40;;;;;;;-1.21;69.56;101169.52;2122427;83;33773;-68
2022/02/13 03:16:22;;;;;;;43.73;19.85;;;;;;;-1.22;69.56;101164.67;2123018;83;29532;-68
2022/02/13 03:19:24;;;;;;;59.35;25.37;;;;;;;-1.22;69.58;101160.73;2123254;83;27788;-66
2022/02/13 03:22:26;;;;;;;41.23;19.07;;;;;;;-1.20;69.59;101163.80;2122953;83;28665;-65
2022/02/13 03:25:27;;;;;;;39.73;19.17;;;;;;;-1.20;69.61;101154.61;2123228;83;31842;-64
2022/02/13 03:28:29;;;;;;;39.48;19.15;;;;;;;-1.21;69.61;101153.73;2123278;83;33014;-65
2022/02/13 03:31:34;;;;;;;41.55;19.40;;;;;;;-1.23;69.56;101151.52;2123609;83;30086;-68
2022/02/13 03:34:36;;;;;;;44.27;19.75;;;;;;;-1.25;69.53;101146.25;2123827;83;27645;-68
2022/02/13 03:37:40;;;;;;;35.05;19.10;;;;;;;-1.26;69.50;101133.07;2123510;83;28846;-65
2022/02/13 03:40:41;;;;;;;38.92;19.15;;;;;;;-1.28;69.53;101136.11;2123322;82;31115;-66
2022/02/13 03:43:43;;;;;;;42.75;20.45;;;;;;;-1.39;69.60;101130.30;2085882;85;32944;-68
2022/02/13 03:46:44;;;;;;;50.45;21.65;;;;;;;-1.31;69.57;101146.16;2157876;82;30093;-66
2022/02/13 03:49:46;;;;;;;46.48;23.35;;;;;;;-1.32;69.50;101141.77;2135060;82;27742;-69
2022/02/13 03:52:48;;;;;;;47.08;22.10;;;;;;;-1.35;69.44;101145.66;2119579;84;28592;-67
2022/02/13 03:55:50;;;;;;;52.45;24.50;;;;;;;-1.40;69.44;101146.92;2123340;83;31190;-68
2022/02/13 03:58:52;;;;;;;47.43;23.42;;;;;;;-1.44;69.40;101141.61;2121732;83;32927;-70
2022/02/13 04:01:54;;;;;;;54.18;23.77;;;;;;;-1.53;69.38;101129.23;2123374;83;30135;-69
2022/02/13 04:04:57;;;;;;;44.48;23.38;;;;;;;-1.59;69.48;101122.16;2123767;83;27689;-66
2022/02/13 04:07:59;;;;;;;51.92;24.35;;;;;;;-1.64;69.49;101126.45;2138629;83;28652;-67
2022/02/13 04:11:01;;;;;;;44.23;22.00;;;;;;;-1.69;69.54;101130.75;2148410;82;31819;-68
2022/02/13 04:14:03;;;;;;;44.95;21.73;;;;;;;-1.76;69.54;101123.22;2162143;81;32975;-68
2022/02/13 04:17:05;;;;;;;50.25;22.82;;;;;;;-1.80;69.66;101125.34;2162515;81;29310;-67
2022/02/13 04:20:08;;;;;;;55.38;24.45;;;;;;;-1.83;69.72;101113.50;2120014;82;28404;-64
2022/02/13 04:23:10;;;;;;;51.48;23.90;;;;;;;-1.89;69.76;101109.46;2158010;82;28750;-63
2022/02/13 04:26:12;;;;;;;56.73;25.15;;;;;;;-1.94;69.85;101115.06;2158800;81;31809;-63
2022/02/13 04:29:13;;;;;;;49.88;24.12;;;;;;;-2.03;69.88;101107.52;2158500;81;33704;-63
2022/02/13 04:32:15;;;;;;;53.02;22.62;;;;;;;-2.07;70.05;101103.52;2157813;82;30265;-63
2022/02/13 04:35:17;;;;;;;51.90;23.92;;;;;;;-2.14;69.98;101098.16;2158232;82;27661;-64
2022/02/13 04:38:19;;;;;;;50.30;23.95;;;;;;;-2.20;70.06;101087.55;2158444;82;28760;-66
2022/02/13 04:41:21;;;;;;;54.88;24.40;;;;;;;-2.24;70.12;101087.08;2158914;82;31551;-68
2022/02/13 04:44:23;;;;;;;47.85;22.95;;;;;;;-2.30;70.24;101083.03;2158542;80;33712;-66
2022/02/13 04:47:25;;;;;;;50.03;23.00;;;;;;;-2.35;70.32;101082.97;2157750;82;29487;-68
2022/02/13 04:50:27;;;;;;;49.88;23.20;;;;;;;-2.37;70.35;101070.66;2157252;82;27685;-67
2022/02/13 04:53:29;;;;;;;47.17;22.75;;;;;;;-2.42;70.48;101074.52;2157781;82;28753;-63
2022/02/13 04:56:31;;;;;;;39.90;21.23;;;;;;;-2.46;70.55;101066.14;2157982;82;31790;-65
2022/02/13 04:59:34;;;;;;;51.30;22.00;;;;;;;-2.49;70.67;101059.56;2157455;82;33958;-66
2022/02/13 05:02:37;;;;;;;46.50;22.62;;;;;;;-2.51;70.76;101056.89;2157928;82;29331;-66
2022/02/13 05:05:40;;;;;;;43.92;22.20;;;;;;;-2.53;70.73;101061.67;2177314;81;27666;-64
2022/02/13 05:08:42;;;;;;;43.42;21.37;;;;;;;-2.57;70.75;101042.80;2190856;80;28626;-64
2022/02/13 05:11:43;;;;;;;46.53;21.23;;;;;;;-2.59;70.81;101041.47;2184776;80;31226;-65
2022/02/13 05:14:46;;;;;;;52.20;22.20;;;;;;;-2.62;70.95;101036.17;2150613;82;33031;-66
2022/02/13 05:17:48;;;;;;;46.42;21.97;;;;;;;-2.64;71.07;101028.26;2150618;82;29328;-64
2022/02/13 05:20:50;;;;;;;40.00;20.10;;;;;;;-2.67;71.24;101026.02;2150620;82;27660;-64
2022/02/13 05:23:52;;;;;;;49.53;21.17;;;;;;;-2.70;71.16;101032.11;2150519;82;29410;-63
2022/02/13 05:26:53;;;;;;;40.38;19.67;;;;;;;-2.70;71.15;101029.90;2150524;82;31887;-65
2022/02/13 05:29:55;;;;;;;46.37;20.15;;;;;;;-2.69;71.23;101030.36;2150327;82;32924;-65
2022/02/13 05:32:57;;;;;;;41.00;20.00;;;;;;;-2.70;71.20;101029.90;2150478;82;29322;-64
2022/02/13 05:35:59;;;;;;;70.15;37.98;;;;;;;-2.69;71.28;101029.05;2148507;82;27611;-66
2022/02/13 05:39:00;;;;;;;39.88;21.12;;;;;;;-2.70;71.27;101027.28;2124287;83;28674;-66
2022/02/13 05:42:02;;;;;;;40.63;22.10;;;;;;;-2.70;71.32;101013.75;2124218;83;31163;-65
2022/02/13 05:45:06;;;;;;;38.80;20.50;;;;;;;-2.71;71.33;101017.23;2185393;81;33716;-63
2022/02/13 05:48:08;;;;;;;38.00;19.55;;;;;;;-2.74;71.40;101013.24;2185601;81;29404;-64
2022/02/13 05:51:10;;;;;;;37.28;20.37;;;;;;;-2.76;71.43;101010.61;2185678;81;27676;-65
2022/02/13 05:54:12;;;;;;;33.38;17.87;;;;;;;-2.78;71.52;101008.80;2185564;81;28623;-65
2022/02/13 05:57:14;;;;;;;34.98;17.37;;;;;;;-2.77;71.58;101014.50;2185349;81;31187;-63
2022/02/13 06:00:19;;;;;;;39.58;18.60;;;;;;;-2.76;71.69;101016.27;2185258;81;33164;-63
2022/02/13 06:03:20;;;;;;;36.58;17.45;;;;;;;-2.73;71.66;101018.08;2185557;81;29319;-64
2022/02/13 06:06:22;;;;;;;32.23;17.40;;;;;;;-2.73;71.74;101001.90;2168600;81;27670;-65
2022/02/13 06:09:24;;;;;;;37.93;18.65;;;;;;;-2.71;71.73;101001.50;2174193;81;28606;-68
2022/02/13 06:12:29;;;;;;;28.80;16.90;;;;;;;-2.68;71.80;101001.97;2186778;81;31817;-65
2022/02/13 06:15:30;;;;;;;32.58;17.27;;;;;;;-2.64;71.75;101004.66;2188749;80;33208;-62
2022/02/13 06:18:36;;;;;;;29.60;16.20;;;;;;;-2.62;71.78;101009.95;2188946;81;29278;-64
2022/02/13 06:21:38;;;;;;;30.80;16.20;;;;;;;-2.59;71.75;101007.38;2188956;80;28196;-63
2022/02/13 06:24:40;;;;;;;29.77;16.17;;;;;;;-2.56;71.78;101003.91;2188884;80;29844;-64
2022/02/13 06:27:41;;;;;;;34.63;16.17;;;;;;;-2.52;71.73;100996.55;2188815;80;31831;-66
2022/02/13 06:30:43;;;;;;;35.03;16.23;;;;;;;-2.49;71.76;100983.48;2188273;81;32932;-64
2022/02/13 06:33:45;;;;;;;32.15;15.38;;;;;;;-2.47;71.70;100986.57;2188882;80;29322;-66
2022/02/13 06:36:47;;;;;;;25.52;15.00;;;;;;;-2.41;71.81;100983.59;2170794;81;27626;-65
2022/02/13 06:39:49;;;;;;;30.17;16.07;;;;;;;-2.35;71.84;100983.66;2209298;80;28701;-66
2022/02/13 06:42:50;;;;;;;30.70;15.60;;;;;;;-2.28;71.79;100990.78;2197355;81;30976;-66
2022/02/13 06:45:54;;;;;;;31.52;16.70;;;;;;;-2.21;71.76;100988.67;2193498;80;33010;-66
2022/02/13 06:48:55;;;;;;;32.33;15.10;;;;;;;-2.14;71.73;100982.66;2169484;81;29346;-65
2022/02/13 06:51:58;;;;;;;31.15;16.02;;;;;;;-2.07;71.67;100986.70;2176276;81;27746;-66
2022/02/13 06:55:00;;;;;;;28.40;15.40;;;;;;;-2.00;71.62;100974.08;2191392;81;28644;-66
2022/02/13 06:58:01;;;;;;;31.87;15.63;;;;;;;-1.93;71.58;100977.25;2159164;81;31795;-67
2022/02/13 07:01:03;;;;;;;32.63;15.90;;;;;;;-1.86;71.60;100969.88;2188130;81;32946;-67
2022/02/13 07:04:04;;;;;;;32.73;16.12;;;;;;;-1.77;71.57;100981.38;2093606;82;29314;-67
2022/02/13 07:07:08;;;;;;;28.67;13.90;;;;;;;-1.69;71.51;100974.45;2161760;81;27668;-65
2022/02/13 07:10:12;;;;;;;33.33;15.20;;;;;;;-1.60;71.44;100979.83;2228032;79;28705;-65
2022/02/13 07:13:14;;;;;;;30.57;14.60;;;;;;;-1.49;71.36;100971.17;2238963;79;31175;-67
2022/02/13 07:16:16;;;;;;;29.12;14.65;;;;;;;-1.42;71.21;100969.94;2236656;79;33821;-68
2022/02/13 07:19:19;;;;;;;32.63;14.68;;;;;;;-1.34;71.05;100971.33;2215691;79;29314;-66
2022/02/13 07:22:21;;;;;;;33.85;14.35;;;;;;;-1.25;71.04;100973.17;2205338;79;27728;-67
2022/02/13 07:25:24;;;;;;;29.07;14.87;;;;;;;-1.18;70.90;100963.18;2227596;79;28632;-67
2022/02/13 07:31:45;;;;;;;22.35;12.95;;;;;;;-1.04;70.84;100958.47;2203933;79;33063;-68
2022/02/13 07:34:47;;;;;;;25.08;13.03;;;;;;;-0.97;70.88;100961.58;2236543;79;29318;-68
2022/02/13 07:37:49;;;;;;;26.30;13.38;;;;;;;-0.89;70.81;100958.59;2200699;79;28256;-66
2022/02/13 07:40:51;;;;;;;30.40;13.80;;;;;;;-0.75;70.90;100949.92;2200842;79;29486;-68
2022/02/13 07:43:53;;;;;;;23.15;12.98;;;;;;;-0.61;70.83;100953.53;2200605;79;31010;-67
2022/02/13 07:46:56;;;;;;;26.40;12.95;;;;;;;-0.49;70.85;100947.48;2200585;80;32955;-81
2022/02/13 07:49:57;;;;;;;22.40;12.88;;;;;;;-0.39;70.81;100944.02;2205115;79;29337;-71
2022/02/13 07:52:59;;;;;;;25.62;13.62;;;;;;;-0.25;70.52;100937.52;2240292;79;27688;-69
2022/02/13 07:56:01;;;;;;;26.93;13.58;;;;;;;-0.08;70.54;100945.94;2240676;79;28701;-78
2022/02/13 07:59:03;;;;;;;24.55;13.00;;;;;;;0.14;70.60;100945.59;2241056;79;30415;-76
2022/02/13 08:02:05;;;;;;;23.05;12.35;;;;;;;0.51;70.60;100947.45;2240830;79;33963;-70
2022/02/13 08:05:07;;;;;;;22.48;11.43;;;;;;;0.92;70.25;100947.96;2235689;79;29335;-69
2022/02/13 08:08:09;;;;;;;20.35;11.75;;;;;;;1.30;70.04;100943.13;2200768;80;27642;-69
2022/02/13 08:11:11;;;;;;;18.73;10.08;;;;;;;1.70;69.89;100944.81;2195220;80;28629;-73
2022/02/13 08:14:12;;;;;;;16.10;8.50;;;;;;;2.25;69.49;100942.83;2191860;80;32029;-70
2022/02/13 08:17:14;;;;;;;13.20;9.08;;;;;;;2.84;69.23;100939.39;2191358;81;33004;-74
2022/02/13 08:20:16;;;;;;;14.53;8.40;;;;;;;3.45;68.75;100933.58;2199223;80;29511;-74
2022/02/13 08:23:17;;;;;;;13.75;8.60;;;;;;;3.97;67.94;100932.15;2218689;80;27696;-71
2022/02/13 08:26:19;;;;;;;11.95;8.25;;;;;;;4.45;67.09;100934.63;2218602;80;29441;-76
2022/02/13 08:29:21;;;;;;;15.40;8.78;;;;;;;4.80;66.48;100934.56;2218244;80;30997;-81
2022/02/13 08:32:26;;;;;;;10.35;7.97;;;;;;;5.05;66.25;100928.37;2218106;80;33090;-79
2022/02/13 08:35:28;;;;;;;14.60;8.10;;;;;;;5.33;65.50;100922.61;2210505;80;29315;-73
2022/02/13 08:38:30;;;;;;;13.10;8.30;;;;;;;5.58;64.56;100920.81;2154787;82;27637;-78
2022/02/13 08:41:32;;;;;;;12.70;8.68;;;;;;;5.73;64.48;100918.33;2153727;82;29654;-78
2022/02/13 08:44:33;;;;;;;17.32;12.05;;;;;;;5.87;64.32;100922.05;2168792;80;30997;-74
2022/02/13 08:47:35;;;;;;;28.50;17.10;;;;;;;5.94;64.10;100921.00;2226233;79;32876;-72
2022/02/13 08:50:38;;;;;;;19.80;14.90;;;;;;;5.91;63.42;100915.30;2218612;80;29320;-75
2022/02/13 08:53:40;;;;;;;19.27;11.95;;;;;;;5.90;62.72;100912.22;2197454;79;27657;-72
2022/02/13 08:56:41;;;;;;;71.20;30.30;;;;;;;5.93;63.10;100913.93;2230889;79;28625;-79
2022/02/13 08:59:43;;;;;;;110.50;45.28;;;;;;;5.90;62.50;100905.57;2231571;79;30999;-80
2022/02/13 09:02:45;;;;;;;114.82;47.35;;;;;;;5.89;62.60;100904.25;2224103;79;32348;-73
2022/02/13 09:05:47;;;;;;;102.95;43.92;;;;;;;5.92;62.20;100906.85;2202544;79;30271;-73
2022/02/13 09:08:48;;;;;;;86.75;37.95;;;;;;;5.97;61.93;100906.31;2210226;79;27694;-73
2022/02/13 09:11:50;;;;;;;35.60;16.42;;;;;;;5.98;61.73;100899.20;2210473;79;28621;-75
2022/02/13 09:14:53;;;;;;;28.60;12.93;;;;;;;5.97;61.04;100894.78;2212534;79;31045;-71
2022/02/13 09:17:54;;;;;;;18.62;10.28;;;;;;;6.02;61.61;100901.82;2212882;79;33043;-70
2022/02/13 09:20:56;;;;;;;18.87;9.68;;;;;;;6.05;60.87;100896.88;2212165;79;29304;-77
2022/02/13 09:23:58;;;;;;;15.50;9.88;;;;;;;6.11;61.08;100899.42;2215134;79;27639;-72
2022/02/13 09:26:59;;;;;;;18.62;10.03;;;;;;;6.15;60.06;100890.44;2199094;79;28688;-69
2022/02/13 09:30:02;;;;;;;17.05;10.72;;;;;;;6.19;60.15;100891.27;2213969;79;31790;-69
2022/02/13 09:33:04;;;;;;;16.02;9.08;;;;;;;6.21;59.67;100889.42;2200043;79;33826;-69
2022/02/13 09:36:06;;;;;;;34.75;10.88;;;;;;;6.26;59.66;100884.03;2201482;79;29333;-70
2022/02/13 09:39:09;;;;;;;16.62;9.28;;;;;;;6.31;59.65;100885.67;2184413;80;27686;-75
2022/02/13 09:42:11;;;;;;;16.00;9.45;;;;;;;6.36;59.54;100879.80;2148420;82;28760;-73
2022/02/13 09:45:13;;;;;;;17.95;8.68;;;;;;;6.42;58.90;100875.22;2134915;82;31070;-75
2022/02/13 09:48:23;;;;;;;15.50;8.88;;;;;;;6.45;59.17;100875.16;2161817;82;33111;-73
2022/02/13 09:51:25;;;;;;;15.78;9.70;;;;;;;6.52;58.70;100875.45;2151917;82;29417;-73
2022/02/13 09:54:27;;;;;;;15.25;9.28;;;;;;;6.56;58.41;100880.23;2161517;82;27809;-74
2022/02/13 10:01:02;;;;;;;15.58;8.75;;;;;;;6.62;57.83;100868.98;2215403;79;31720;-75
2022/02/13 10:04:05;;;;;;;18.60;10.50;;;;;;;6.66;57.98;100871.11;2205446;79;33900;-74
2022/02/13 10:07:18;;;;;;;13.68;9.05;;;;;;;6.71;57.46;100872.32;2228830;79;29328;-74
2022/02/13 10:10:19;;;;;;;13.75;8.85;;;;;;;6.71;57.68;100857.23;2228366;79;27754;-75
2022/02/13 10:13:21;;;;;;;16.23;8.70;;;;;;;6.76;57.48;100858.45;2212034;79;29423;-76
2022/02/13 10:16:34;;;;;;;18.25;9.18;;;;;;;6.77;57.21;100860.20;2200639;79;31051;-74
2022/02/13 10:19:37;;;;;;;16.60;8.65;;;;;;;6.80;57.02;100863.65;2200599;79;33741;-74
2022/02/13 10:22:43;;;;;;;13.65;8.20;;;;;;;6.82;57.32;100851.17;2200851;80;29389;-74
2022/02/13 10:25:45;;;;;;;;;;;;;;;6.86;56.92;100857.32;2203662;80;27719;-73
2022/02/13 10:28:56;;;;;;;11.93;7.53;;;;;;;6.88;56.59;100847.95;2200604;80;28759;-74
2022/02/13 10:32:25;;;;;;;14.53;8.33;;;;;;;6.89;56.80;100840.37;2200707;79;30452;-70
2022/02/13 10:35:29;;;;;;;11.55;7.45;;;;;;;6.93;56.79;100833.59;2201408;80;32983;-74
2022/02/13 10:38:35;;;;;;;13.60;7.75;;;;;;;6.95;56.27;100822.45;2197726;80;29336;-76
2022/02/13 10:41:37;;;;;;;14.80;8.33;;;;;;;7.02;56.26;100821.83;2214692;79;27585;-72
2022/02/13 10:44:41;;;;;;;14.63;7.35;;;;;;;7.08;56.12;100814.13;2229655;79;28685;-71
2022/02/13 10:47:48;;;;;;;14.28;8.03;;;;;;;7.11;55.22;100807.38;2237790;79;31727;-73
2022/02/13 10:50:50;;;;;;;47.50;24.23;;;;;;;7.10;55.21;100802.97;2211957;79;33754;-76
2022/02/13 10:53:54;;;;;;;58.73;28.85;;;;;;;7.09;55.43;100794.13;2199801;80;29326;-80
2022/02/13 10:56:58;;;;;;;63.05;42.20;;;;;;;7.09;55.09;100787.90;2166167;81;27730;-74
2022/02/13 11:00:03;;;;;;;193.07;133.97;;;;;;;7.10;54.92;100789.21;2168156;81;27798;-75
2022/02/13 11:03:07;;;;;;;46.15;33.92;;;;;;;7.12;54.88;100799.34;2161226;81;31013;-71
2022/02/13 11:06:11;;;;;;;18.57;13.00;;;;;;;7.13;54.88;100798.42;2153926;82;36745;-74
2022/02/13 11:09:23;;;;;;;15.15;9.30;;;;;;;7.09;54.59;100791.45;2177626;81;29561;-74
2022/02/13 11:12:25;;;;;;;14.38;9.05;;;;;;;7.10;55.05;100788.31;2184201;81;27250;-71
2022/02/13 11:15:34;;;;;;;15.75;8.18;;;;;;;7.13;54.85;100790.91;2158123;82;29497;-77
2022/02/13 11:18:37;;;;;;;22.87;12.33;;;;;;;7.11;54.30;100777.64;2197385;81;31394;-74
2022/02/13 11:21:42;;;;;;;11.93;7.35;;;;;;;7.13;54.41;100780.25;2143663;82;32970;-77
2022/02/13 11:24:51;;;;;;;19.02;12.80;;;;;;;7.13;53.35;100773.11;2135077;83;30106;-75
2022/02/13 11:27:58;;;;;;;20.55;10.95;;;;;;;7.08;53.37;100770.16;2175760;81;27672;-75
2022/02/13 11:31:00;;;;;;;12.88;8.50;;;;;;;7.09;54.02;100766.59;2169178;81;28752;-76
2022/02/13 11:34:02;;;;;;;9.68;7.00;;;;;;;7.11;53.33;100753.66;2194096;80;30450;-76
2022/02/13 11:37:14;;;;;;;13.48;9.08;;;;;;;7.11;52.98;100754.98;2175661;81;33727;-74
2022/02/13 11:40:49;;;;;;;11.78;7.10;;;;;;;7.08;52.77;100752.41;2127907;83;27743;-74
2022/02/13 11:43:59;;;;;;;10.58;6.90;;;;;;;7.09;53.49;100750.16;2142599;83;27729;-75
2022/02/13 11:47:02;;;;;;;13.03;7.65;;;;;;;7.10;53.62;100742.59;2140828;83;28667;-75
2022/02/13 11:50:11;;;;;;;9.38;6.70;;;;;;;7.12;53.37;100738.53;2142934;83;31025;-76
2022/02/13 11:53:25;;;;;;;9.38;6.65;;;;;;;7.13;53.03;100733.14;2122106;83;32958;-73
2022/02/13 11:56:28;;;;;;;16.10;10.15;;;;;;;7.14;52.64;100730.04;2114265;82;30121;-76
2022/02/13 11:59:52;;;;;;;10.25;7.15;;;;;;;7.13;52.72;100719.83;2113766;84;27755;-77
2022/02/13 12:02:56;;;;;;;10.72;6.45;;;;;;;7.13;52.67;100717.16;2102259;83;28843;-75
2022/02/13 12:06:09;;;;;;;10.38;6.87;;;;;;;7.13;52.35;100718.97;2114194;82;31019;-77
2022/02/13 12:09:11;;;;;;;11.00;6.60;;;;;;;7.14;52.39;100718.05;2113129;84;33722;-77
2022/02/13 12:12:22;;;;;;;10.93;6.90;;;;;;;7.13;51.89;100717.63;2113945;84;29310;-73
2022/02/13 12:15:25;;;;;;;15.25;8.20;;;;;;;7.12;51.97;100715.41;2077953;85;27630;-73
2022/02/13 12:18:27;;;;;;;11.73;8.28;;;;;;;7.11;51.83;100713.70;2095734;84;28664;-74
2022/02/13 12:21:29;;;;;;;13.00;9.08;;;;;;;7.12;52.02;100710.55;2109353;81;31212;-74
2022/02/13 12:24:32;;;;;;;14.55;9.25;;;;;;;7.12;51.78;100701.23;2124367;83;33944;-72
2022/02/13 12:27:34;;;;;;;17.27;9.98;;;;;;;7.12;51.45;100699.90;2083316;85;29352;-71
2022/02/13 12:30:36;;;;;;;14.60;9.13;;;;;;;7.10;51.88;100697.29;2123850;83;28317;-76
2022/02/13 12:33:50;;;;;;;11.80;6.75;;;;;;;7.11;51.27;100688.83;2073887;84;29645;-77
2022/02/13 12:37:01;;;;;;;11.40;7.95;;;;;;;7.10;51.21;100685.30;2112863;83;31041;-80
2022/02/13 12:39:59;;;;;;;12.33;7.83;;;;;;;7.13;51.02;100679.00;2151192;80;32983;-75
2022/02/13 12:43:10;;;;;;;14.95;8.60;;;;;;;7.14;50.82;100665.62;2195745;81;29926;-74
2022/02/13 12:46:16;;;;;;;14.68;9.83;;;;;;;7.15;51.29;100666.04;2159473;82;27628;-75
2022/02/13 12:49:16;;;;;;;999.30;510.13;;;;;;;7.19;51.09;100662.84;2158988;82;28683;-80
2022/02/13 12:52:17;;;;;;;231.50;121.55;;;;;;;7.19;50.17;100660.63;2159242;82;31053;-76
2022/02/13 12:55:23;;;;;;;120.17;64.42;;;;;;;7.19;50.61;100661.95;2190010;81;32923;-73
2022/02/13 12:58:32;;;;;;;20.05;12.05;;;;;;;7.21;50.61;100656.12;2161763;82;29325;-73
2022/02/13 13:01:35;;;;;;;29.63;17.48;;;;;;;7.21;50.59;100654.32;2173391;80;27768;-75
2022/02/13 13:04:38;;;;;;;28.00;16.82;;;;;;;7.22;50.82;100657.40;2175740;81;29670;-74
2022/02/13 13:07:41;;;;;;;15.80;10.72;;;;;;;7.23;51.07;100648.48;2197816;81;31043;-71
2022/02/13 13:10:53;;;;;;;13.58;7.83;;;;;;;7.24;51.41;100644.05;2197097;81;33928;-77
2022/02/13 13:14:05;;;;;;;12.98;8.30;;;;;;;7.24;50.94;100639.58;2191766;81;29336;-73
2022/02/13 13:17:08;;;;;;;14.13;8.50;;;;;;;7.23;51.41;100639.16;2190869;81;27648;-71
2022/02/13 13:20:28;;;;;;;14.85;10.15;;;;;;;7.23;51.49;100633.83;2198816;79;28689;-75
2022/02/13 13:23:30;;;;;;;14.80;10.80;;;;;;;7.23;51.29;100632.98;2197879;80;31808;-77
2022/02/13 13:26:43;;;;;;;12.23;8.38;;;;;;;7.24;50.97;100621.40;2197836;80;32922;-75
2022/02/13 13:29:46;;;;;;;18.77;10.28;;;;;;;7.25;51.02;100623.14;2193762;81;30410;-76
2022/02/13 13:32:48;;;;;;;14.07;7.78;;;;;;;7.24;51.17;100616.92;2182757;80;28162;-72
2022/02/13 13:35:53;;;;;;;37.30;24.75;;;;;;;7.25;51.10;100615.16;2162847;81;28637;-74
2022/02/13 13:38:55;;;;;;;22.67;14.93;;;;;;;7.24;51.26;100614.27;2162502;82;31031;-77
2022/02/13 13:41:56;;;;;;;31.40;20.10;;;;;;;7.23;51.20;100607.19;2164036;81;33758;-76
2022/02/13 13:45:08;;;;;;;16.65;11.73;;;;;;;7.22;51.47;100609.44;2126498;83;29324;-74
2022/02/13 13:48:13;;;;;;;17.45;11.93;;;;;;;7.19;51.38;100596.23;2158841;82;27727;-74
2022/02/13 13:51:14;;;;;;;17.85;10.30;;;;;;;7.17;51.40;100598.06;2159913;81;28727;-73
2022/02/13 13:54:19;;;;;;;11.35;7.12;;;;;;;7.18;51.67;100601.59;2160416;82;31836;-73
2022/02/13 13:57:21;;;;;;;15.65;8.90;;;;;;;7.16;51.74;100585.66;2162188;81;32981;-72
2022/02/13 14:00:23;;;;;;;22.52;16.42;;;;;;;7.14;51.84;100587.02;2167911;81;29606;-75
2022/02/13 14:03:25;;;;;;;22.05;13.70;;;;;;;7.15;51.96;100586.58;2167630;81;28152;-74
2022/02/13 14:06:27;;;;;;;17.70;12.13;;;;;;;7.15;52.01;100583.91;2163250;82;28661;-75